Time;durP1;ratioP1;P1;durP2;ratioP2;P2;SDS_P1;SDS_P2;PMS_P1;PMS_P2;Temp;Humidity;BMP_temperature;BMP_pressure;BME280_temperature;BME280_humidity;BME280_pressure;Samples;Min_cycle;Max_cycle;Signal;HPM_P1;HPM_P2
2021/08/27 00:00:27;;;;;;;;;10.00;9.00;;;;;18.83;55.67;98109.22;5998621;29;96931;-62
2021/08/27 00:03:32;;;;;;;;;7.80;7.00;;;;;18.86;55.50;98103.16;5997446;29;97404;-62
2021/08/27 00:06:35;;;;;;;;;10.00;9.00;;;;;18.89;55.41;98102.59;5997392;29;97517;-62
2021/08/27 00:09:39;;;;;;;;;10.00;7.80;;;;;18.88;55.33;98092.78;5996156;29;97507;-61
2021/08/27 00:12:42;;;;;;;;;8.00;8.00;;;;;18.90;55.66;98084.28;5982049;29;98577;-62
2021/08/27 00:15:45;;;;;;;;;7.60;6.60;;;;;18.92;55.47;98101.19;5996567;29;97485;-62
2021/08/27 00:18:50;;;;;;;;;9.00;9.00;;;;;18.94;55.72;98098.97;5996802;29;97424;-62
2021/08/27 00:21:53;;;;;;;;;9.00;8.00;;;;;18.93;55.51;98103.63;5997797;29;96485;-60
2021/08/27 00:24:56;;;;;;;;;10.00;9.25;;;;;18.93;55.61;98119.19;5997035;29;97519;-62
2021/08/27 00:28:00;;;;;;;;;10.40;10.00;;;;;18.94;55.74;98118.09;5997517;29;97778;-61
2021/08/27 00:31:04;;;;;;;;;9.60;9.00;;;;;18.93;55.78;98114.56;5996395;29;97678;-61
2021/08/27 00:34:09;;;;;;;;;8.80;8.80;;;;;18.95;56.08;98114.25;5995915;29;97061;-62
2021/08/27 00:37:12;;;;;;;;;12.00;11.00;;;;;18.90;55.91;98117.06;5979694;29;98096;-61
2021/08/27 00:40:18;;;;;;;;;10.80;9.00;;;;;18.89;56.26;98123.63;5996659;29;97433;-62
2021/08/27 00:43:22;;;;;;;;;9.25;8.50;;;;;18.89;56.39;98121.72;5996855;29;96486;-61
2021/08/27 00:46:25;;;;;;;;;9.00;9.00;;;;;18.85;56.54;98131.59;5980022;29;98260;-61
2021/08/27 00:49:30;;;;;;;;;10.00;8.50;;;;;18.88;56.07;98116.53;5996499;29;96480;-60
2021/08/27 00:52:35;;;;;;;;;7.00;6.60;;;;;18.92;55.87;98120.28;5997128;29;96496;-62
2021/08/27 00:55:39;;;;;;;;;8.20;7.60;;;;;18.85;56.34;98108.94;6018954;29;96932;-60
2021/08/27 00:58:42;;;;;;;;;9.00;8.00;;;;;18.95;56.11;98106.06;6004549;29;97759;-62
2021/08/27 01:01:45;;;;;;;;;9.00;7.00;;;;;18.97;56.08;98110.13;6014815;29;96640;-60
2021/08/27 01:04:52;;;;;;;;;8.25;8.00;;;;;18.95;55.79;98117.00;6022689;29;97316;-61
2021/08/27 01:08:01;;;;;;;;;8.00;8.00;;;;;18.96;56.07;98116.69;6022582;29;96818;-61
2021/08/27 01:11:13;;;;;;;;;8.00;7.00;;;;;18.93;56.19;98125.47;6023604;28;96557;-63
2021/08/27 01:14:26;;;;;;;;;8.00;8.00;;;;;18.97;56.03;98103.84;6014608;29;96969;-63
2021/08/27 01:17:37;;;;;;;;;6.00;6.00;;;;;19.03;56.12;98108.13;6013841;29;97425;-63
2021/08/27 01:21:06;;;;;;;;;9.00;7.60;;;;;19.08;55.91;98108.06;6023486;28;97063;-63
2021/08/27 01:24:11;;;;;;;;;7.00;7.00;;;;;19.07;55.52;98106.44;6023042;28;96934;-62
2021/08/27 01:27:18;;;;;;;;;8.00;7.00;;;;;19.09;55.71;98114.34;6023670;29;98094;-62
2021/08/27 01:30:29;;;;;;;;;8.60;7.60;;;;;19.05;55.92;98114.13;6024028;29;97231;-63
2021/08/27 01:33:35;;;;;;;;;9.00;9.00;;;;;19.03;56.11;98106.22;6023065;29;97415;-62
2021/08/27 01:36:42;;;;;;;;;9.00;7.80;;;;;19.04;55.90;98101.56;6018709;29;97429;-63
2021/08/27 01:39:49;;;;;;;;;8.50;8.00;;;;;19.06;56.10;98095.81;5999350;29;96570;-60
2021/08/27 01:42:55;;;;;;;;;7.60;7.00;;;;;19.05;55.94;98097.72;6000084;29;98000;-63
2021/08/27 01:46:02;;;;;;;;;8.00;8.00;;;;;19.03;55.61;98103.47;6013526;29;96986;-62
2021/08/27 01:49:07;;;;;;;;;11.80;9.00;;;;;19.01;56.00;98111.16;6021375;28;97570;-61
2021/08/27 01:52:13;;;;;;;;;8.80;7.80;;;;;18.96;56.09;98104.97;6023334;29;96444;-60
2021/08/27 01:55:19;;;;;;;;;10.00;9.40;;;;;18.83;55.71;98097.47;6024098;29;96725;-62
2021/08/27 01:58:24;;;;;;;;;9.40;9.00;;;;;18.95;56.14;98123.28;6006779;29;97250;-63
2021/08/27 02:01:29;;;;;;;;;9.50;9.50;;;;;18.88;56.04;98109.16;6012331;29;96675;-63
2021/08/27 02:04:37;;;;;;;;;12.60;10.00;;;;;18.88;55.89;98114.63;6023052;29;97519;-62
2021/08/27 02:07:41;;;;;;;;;7.20;7.20;;;;;18.86;56.05;98113.31;6023358;28;96894;-60
2021/08/27 02:10:46;;;;;;;;;8.00;7.60;;;;;18.86;55.81;98119.56;6017192;28;97654;-62
2021/08/27 02:13:50;;;;;;;;;11.00;10.50;;;;;18.87;55.94;98123.91;5999356;29;96860;-61
2021/08/27 02:16:53;;;;;;;;;11.00;10.00;;;;;18.88;56.14;98119.25;6006336;29;96948;-61
2021/08/27 02:19:58;;;;;;;;;11.00;9.00;;;;;18.86;55.81;98126.97;6022584;28;97413;-61
2021/08/27 02:23:04;;;;;;;;;9.60;8.60;;;;;18.87;55.90;98134.03;6021507;28;96994;-62
2021/08/27 02:26:11;;;;;;;;;12.00;10.40;;;;;18.83;56.07;98127.53;6021383;28;97113;-62
2021/08/27 02:29:17;;;;;;;;;9.00;9.00;;;;;18.79;56.30;98132.78;6022156;29;96620;-60
2021/08/27 02:32:22;;;;;;;;;8.60;8.00;;;;;18.75;56.71;98136.38;6021792;29;97794;-61
2021/08/27 02:35:26;;;;;;;;;10.00;7.60;;;;;18.76;56.51;98127.91;6009808;29;97124;-62
2021/08/27 02:38:34;;;;;;;;;11.50;9.50;;;;;18.78;56.46;98131.13;6009395;29;97364;-62
2021/08/27 02:41:39;;;;;;;;;9.00;8.20;;;;;18.76;56.68;98129.81;6022480;28;96449;-62
2021/08/27 02:44:43;;;;;;;;;9.60;9.00;;;;;18.70;56.50;98133.72;6021144;29;96623;-62
2021/08/27 02:47:46;;;;;;;;;10.00;9.00;;;;;18.72;56.68;98139.69;6021928;28;97535;-60
2021/08/27 02:51:02;;;;;;;;;9.00;7.00;;;;;18.73;56.86;98141.31;6012383;28;97414;-62
2021/08/27 02:54:09;;;;;;;;;9.00;8.00;;;;;18.74;57.16;98143.75;5998798;29;97089;-62
2021/08/27 02:57:14;;;;;;;;;10.00;9.00;;;;;18.81;56.44;98144.22;5998994;29;97454;-61
2021/08/27 03:00:18;;;;;;;;;8.00;8.00;;;;;18.65;56.53;98123.69;5998394;29;97594;-61
2021/08/27 03:03:24;;;;;;;;;8.50;7.00;;;;;18.87;56.35;98153.97;5998773;29;96991;-61
2021/08/27 03:06:31;;;;;;;;;9.60;8.60;;;;;18.91;56.41;98163.19;5999007;29;97542;-62
2021/08/27 03:09:44;;;;;;;;;9.40;8.40;;;;;18.89;56.26;98146.28;5982625;29;97962;-60
2021/08/27 03:12:51;;;;;;;;;10.00;9.00;;;;;19.00;56.18;98157.91;5998445;29;97374;-60
2021/08/27 03:16:01;;;;;;;;;9.00;7.40;;;;;18.91;56.04;98155.00;5982801;29;97134;-60
2021/08/27 03:19:10;;;;;;;;;8.40;7.00;;;;;18.95;55.87;98152.50;5997896;29;96656;-61
2021/08/27 03:22:20;;;;;;;;;10.00;9.50;;;;;18.99;56.10;98154.34;5997860;29;96901;-61
2021/08/27 03:25:25;;;;;;;;;8.60;8.60;;;;;19.04;55.76;98156.19;5997713;29;97354;-61
2021/08/27 03:28:34;;;;;;;;;8.00;8.00;;;;;19.02;55.78;98156.50;5983219;29;97823;-62
2021/08/27 03:31:39;;;;;;;;;8.60;7.00;;;;;19.08;55.65;98161.88;5975058;29;97024;-62
2021/08/27 03:34:45;;;;;;;;;10.00;9.00;;;;;19.08;55.61;98159.16;5975329;29;96978;-61
2021/08/27 03:37:50;;;;;;;;;8.00;8.00;;;;;19.08;55.39;98164.63;5967344;29;97817;-61
2021/08/27 03:40:57;;;;;;;;;8.00;8.00;;;;;19.10;55.28;98167.88;5998073;29;96760;-62
2021/08/27 03:44:02;;;;;;;;;7.60;7.60;;;;;19.04;55.49;98165.22;5981173;29;98407;-60
2021/08/27 03:47:06;;;;;;;;;9.00;9.00;;;;;19.00;55.61;98164.19;5997493;29;96775;-62
2021/08/27 03:50:12;;;;;;;;;9.00;8.40;;;;;18.99;55.63;98164.47;5996846;29;97616;-62
2021/08/27 03:53:15;;;;;;;;;10.00;9.00;;;;;19.06;55.55;98175.81;6001328;29;97178;-62
2021/08/27 03:56:20;;;;;;;;;7.20;6.80;;;;;19.08;55.73;98172.81;6020199;28;97465;-63
2021/08/27 03:59:24;;;;;;;;;8.00;6.40;;;;;19.07;55.46;98166.53;6020469;29;97027;-60
2021/08/27 04:02:28;;;;;;;;;7.00;6.20;;;;;19.10;55.60;98176.88;6016860;28;96898;-63
2021/08/27 04:05:31;;;;;;;;;9.40;8.00;;;;;19.13;55.53;98164.53;6006918;29;96623;-62
2021/08/27 04:08:36;;;;;;;;;7.00;6.40;;;;;19.16;55.39;98162.03;5997177;29;97517;-63
2021/08/27 04:11:41;;;;;;;;;7.00;6.40;;;;;19.17;55.00;98160.94;5997135;29;96570;-62
2021/08/27 04:14:44;;;;;;;;;7.60;7.00;;;;;19.07;55.14;98171.19;5997148;29;96994;-62
2021/08/27 04:17:47;;;;;;;;;8.75;7.75;;;;;19.10;55.51;98171.44;6000841;29;98598;-62
2021/08/27 04:20:51;;;;;;;;;7.00;7.00;;;;;19.12;55.15;98166.47;5997731;29;97462;-60
2021/08/27 04:23:54;;;;;;;;;7.00;6.40;;;;;19.10;55.22;98174.16;5998820;29;96967;-62
2021/08/27 04:26:59;;;;;;;;;8.50;8.50;;;;;19.05;55.55;98176.97;6021391;28;97436;-63
2021/08/27 04:30:02;;;;;;;;;9.00;8.25;;;;;19.02;55.55;98181.06;6018616;28;97656;-63
2021/08/27 04:33:06;;;;;;;;;7.00;6.25;;;;;18.91;55.62;98174.09;6022490;28;98208;-61
2021/08/27 04:36:09;;;;;;;;;8.00;7.00;;;;;18.99;55.88;98180.84;5997087;29;97996;-62
2021/08/27 04:39:13;;;;;;;;;9.00;9.00;;;;;19.06;55.71;98177.78;6002771;28;96721;-62
2021/08/27 04:42:17;;;;;;;;;8.00;7.00;;;;;19.04;55.79;98180.78;5998516;29;97218;-63
2021/08/27 04:45:21;;;;;;;;;9.00;8.00;;;;;19.16;55.56;98181.16;5997472;29;97308;-62
2021/08/27 04:48:25;;;;;;;;;10.40;9.00;;;;;19.22;55.32;98192.84;6008882;29;96556;-62
2021/08/27 04:51:29;;;;;;;;;7.25;7.00;;;;;19.26;55.24;98191.94;6016702;29;96780;-61
2021/08/27 04:54:32;;;;;;;;;8.00;7.20;;;;;19.30;55.00;98203.13;6017669;29;99598;-63
2021/08/27 04:57:39;;;;;;;;;10.50;10.00;;;;;19.26;55.30;98202.06;6000089;29;96503;-63
2021/08/27 05:00:43;;;;;;;;;9.20;9.00;;;;;19.29;54.85;98207.78;6009603;29;97398;-62
2021/08/27 05:03:46;;;;;;;;;8.00;8.00;;;;;19.28;55.11;98202.59;6014035;28;96748;-60
2021/08/27 05:06:51;;;;;;;;;8.20;8.20;;;;;19.28;55.13;98205.31;6017640;29;96446;-61
2021/08/27 05:09:54;;;;;;;;;9.00;7.60;;;;;19.24;55.13;98205.09;6012840;29;96711;-61
2021/08/27 05:12:59;;;;;;;;;8.50;8.00;;;;;19.23;55.13;98203.47;6018831;29;97162;-60
2021/08/27 05:16:02;;;;;;;;;7.60;7.00;;;;;19.26;54.95;98202.06;6013303;29;96366;-61
2021/08/27 05:19:06;;;;;;;;;7.50;7.50;;;;;19.28;55.28;98197.94;6016130;28;96759;-61
2021/08/27 05:22:09;;;;;;;;;9.40;9.00;;;;;19.32;55.08;98193.50;6003603;29;97179;-62
2021/08/27 05:25:12;;;;;;;;;8.25;7.25;;;;;19.33;54.92;98200.59;6012297;29;96705;-59
2021/08/27 05:28:17;;;;;;;;;10.80;8.00;;;;;19.37;54.61;98201.63;6012734;29;100007;-61
2021/08/27 05:31:20;;;;;;;;;8.60;8.00;;;;;19.50;54.39;98197.38;6008728;29;96741;-61
2021/08/27 05:34:24;;;;;;;;;10.00;9.00;;;;;19.67;54.30;98197.66;5995283;29;97075;-60
2021/08/27 05:37:27;;;;;;;;;9.50;8.25;;;;;19.84;53.99;98194.41;5993777;29;96912;-61
2021/08/27 05:40:30;;;;;;;;;11.40;11.40;;;;;19.86;53.94;98197.63;5995222;29;97214;-60
2021/08/27 05:43:35;;;;;;;;;11.40;9.40;;;;;19.89;53.93;98189.63;5996328;29;97119;-61
2021/08/27 05:46:38;;;;;;;;;9.60;9.00;;;;;19.92;53.34;98190.97;6010781;29;96699;-59
2021/08/27 05:49:42;;;;;;;;;11.40;11.00;;;;;19.96;53.50;98196.66;6021845;29;98562;-59
2021/08/27 05:52:45;;;;;;;;;14.00;12.40;;;;;19.90;53.23;98213.16;6022719;29;97068;-60
2021/08/27 05:55:49;;;;;;;;;13.00;11.40;;;;;19.83;53.55;98210.00;6023856;28;96535;-60
2021/08/27 05:58:54;;;;;;;;;11.50;10.50;;;;;19.81;53.70;98205.91;6019755;29;97097;-61
2021/08/27 06:01:57;;;;;;;;;14.40;12.40;;;;;19.84;53.66;98214.34;6022126;28;96610;-61
2021/08/27 06:05:00;;;;;;;;;13.50;12.50;;;;;19.94;53.52;98215.31;6021776;29;96827;-60
2021/08/27 06:08:04;;;;;;;;;15.40;13.40;;;;;19.97;53.74;98215.50;6022558;28;96824;-58
2021/08/27 06:11:07;;;;;;;;;14.40;13.00;;;;;20.08;52.99;98214.25;6021204;28;97132;-61
2021/08/27 06:14:12;;;;;;;;;17.00;14.00;;;;;20.34;52.34;98209.16;6005030;29;97667;-58
2021/08/27 06:17:15;;;;;;;;;14.00;12.00;;;;;20.59;52.04;98213.34;6012629;29;97401;-63
2021/08/27 06:20:18;;;;;;;;;14.20;12.80;;;;;20.79;51.54;98206.66;6019093;29;97364;-60
2021/08/27 06:23:23;;;;;;;;;15.00;14.00;;;;;21.07;50.93;98216.47;6016851;28;96629;-60
2021/08/27 06:26:26;;;;;;;;;20.50;16.50;;;;;21.39;49.88;98230.09;6018658;28;96853;-61
2021/08/27 06:29:31;;;;;;;;;20.20;14.40;;;;;21.65;49.57;98218.56;6018642;28;96597;-62
2021/08/27 06:32:35;;;;;;;;;15.20;14.00;;;;;21.83;49.01;98221.13;6020653;28;97579;-62
2021/08/27 06:35:41;;;;;;;;;16.00;15.00;;;;;21.92;48.77;98223.91;6021703;28;98069;-60
2021/08/27 06:38:45;;;;;;;;;18.00;15.00;;;;;22.09;48.84;98228.78;6021298;28;97736;-58
2021/08/27 06:41:48;;;;;;;;;15.00;14.00;;;;;22.06;47.89;98238.44;6016930;28;97414;-59
2021/08/27 06:44:53;;;;;;;;;15.20;14.60;;;;;21.97;48.07;98237.56;6017070;29;96731;-60
2021/08/27 06:47:56;;;;;;;;;15.75;13.25;;;;;21.86;47.98;98238.88;6019400;28;96748;-63
2021/08/27 06:51:00;;;;;;;;;18.00;15.00;;;;;21.73;47.79;98229.59;6019914;28;96762;-61
2021/08/27 06:54:03;;;;;;;;;16.40;15.40;;;;;21.70;47.97;98237.63;6018729;29;97123;-60
2021/08/27 06:57:06;;;;;;;;;15.00;14.40;;;;;21.77;47.71;98248.97;6019317;29;96972;-60
2021/08/27 07:00:12;;;;;;;;;16.20;15.00;;;;;21.73;48.08;98240.56;6017586;28;96815;-60
2021/08/27 07:03:16;;;;;;;;;15.75;13.50;;;;;21.74;48.26;98250.41;6019975;28;97797;-60
2021/08/27 07:06:20;;;;;;;;;17.00;15.00;;;;;21.72;47.72;98238.94;6018034;28;97562;-62
2021/08/27 07:09:24;;;;;;;;;15.00;13.80;;;;;21.78;47.75;98250.59;6028832;28;96673;-60
2021/08/27 07:12:28;;;;;;;;;15.20;14.60;;;;;21.77;47.98;98247.03;6018014;28;96433;-59
2021/08/27 07:15:32;;;;;;;;;19.00;16.00;;;;;21.78;47.81;98245.13;6021271;28;97633;-62
2021/08/27 07:18:36;;;;;;;;;16.00;15.00;;;;;21.82;48.25;98244.19;6017216;29;97627;-60
2021/08/27 07:21:39;;;;;;;;;17.20;14.00;;;;;21.79;47.89;98241.25;6014950;29;97499;-60
2021/08/27 07:24:43;;;;;;;;;13.25;13.00;;;;;21.85;47.80;98238.06;6012495;29;96753;-58
2021/08/27 07:27:47;;;;;;;;;16.00;14.00;;;;;21.95;47.23;98237.03;6010759;29;97732;-60
2021/08/27 07:30:51;;;;;;;;;16.00;12.20;;;;;21.92;47.21;98243.13;6016973;29;98286;-59
2021/08/27 07:33:54;;;;;;;;;14.40;12.00;;;;;21.99;46.81;98240.81;6010406;29;97531;-60
2021/08/27 07:36:58;;;;;;;;;11.40;11.40;;;;;22.12;46.67;98245.41;6003691;29;96704;-59
2021/08/27 07:40:01;;;;;;;;;15.67;15.00;;;;;22.21;46.08;98246.28;6011685;29;97334;-60
2021/08/27 07:43:06;;;;;;;;;12.40;11.00;;;;;22.22;45.82;98245.16;6017691;29;99386;-60
2021/08/27 07:46:10;;;;;;;;;10.80;9.80;;;;;22.48;45.86;98239.03;6019175;29;96573;-59
2021/08/27 07:49:13;;;;;;;;;11.00;10.00;;;;;22.69;45.17;98237.34;6015891;29;97021;-60
2021/08/27 07:52:17;;;;;;;;;11.00;9.00;;;;;22.74;44.86;98235.31;6017285;29;96787;-60
2021/08/27 07:55:22;;;;;;;;;10.20;10.00;;;;;22.97;45.04;98236.03;5996842;28;96784;-60
2021/08/27 07:58:25;;;;;;;;;11.25;9.25;;;;;23.42;44.02;98238.56;6013101;29;97697;-62
2021/08/27 08:01:30;;;;;;;;;11.20;10.00;;;;;23.73;42.59;98248.38;6017305;29;97053;-60
2021/08/27 08:04:34;;;;;;;;;9.40;9.40;;;;;23.91;42.10;98251.94;5996990;29;96575;-59
2021/08/27 08:07:37;;;;;;;;;11.00;9.50;;;;;24.17;41.54;98249.19;5995819;29;97485;-60
2021/08/27 08:10:40;;;;;;;;;8.60;8.00;;;;;24.42;41.23;98256.63;6002610;29;96694;-61
2021/08/27 08:13:44;;;;;;;;;10.50;9.50;;;;;24.68;40.86;98251.00;5996180;29;97430;-62
2021/08/27 08:16:48;;;;;;;;;12.40;11.00;;;;;24.86;39.93;98257.31;5993831;29;97602;-60
2021/08/27 08:19:52;;;;;;;;;12.40;11.40;;;;;24.99;39.58;98256.28;5993493;29;97368;-60
2021/08/27 08:22:56;;;;;;;;;10.00;8.00;;;;;25.07;40.31;98249.13;5997014;29;97479;-60
2021/08/27 08:26:00;;;;;;;;;10.00;10.00;;;;;25.47;40.01;98255.88;5995557;29;98006;-60
2021/08/27 08:29:03;;;;;;;;;10.00;10.00;;;;;25.80;39.50;98256.03;5991995;29;96888;-62
2021/08/27 08:32:09;;;;;;;;;9.00;8.60;;;;;25.76;38.87;98260.56;5993711;29;96525;-62
2021/08/27 08:35:12;;;;;;;;;7.50;7.00;;;;;25.45;38.90;98258.19;5960548;29;97621;-59
2021/08/27 08:38:17;;;;;;;;;7.00;7.00;;;;;25.24;40.31;98262.84;5994408;29;97746;-60
2021/08/27 08:41:22;;;;;;;;;8.00;8.00;;;;;25.03;41.11;98252.53;5994943;29;97500;-61
2021/08/27 08:44:26;;;;;;;;;7.00;6.50;;;;;24.74;41.28;98249.72;5980439;29;99003;-61
2021/08/27 08:47:30;;;;;;;;;8.00;7.00;;;;;24.53;41.75;98259.84;6007864;29;97178;-62
2021/08/27 08:50:35;;;;;;;;;8.50;7.00;;;;;24.26;41.92;98251.94;6000440;29;96541;-58
2021/08/27 08:53:40;;;;;;;;;7.00;7.00;;;;;24.09;42.32;98250.78;5996926;29;97888;-63
2021/08/27 08:56:44;;;;;;;;;8.60;8.60;;;;;24.11;42.75;98265.03;5991154;29;96575;-58
2021/08/27 08:59:47;;;;;;;;;9.00;8.00;;;;;24.06;42.41;98259.69;6002451;29;97414;-62
2021/08/27 09:02:52;;;;;;;;;8.00;7.00;;;;;24.00;42.59;98265.69;6015658;29;96835;-61
2021/08/27 09:05:57;;;;;;;;;8.00;8.00;;;;;23.96;42.51;98259.22;5980548;29;98210;-62
2021/08/27 09:09:01;;;;;;;;;6.60;6.00;;;;;24.01;42.69;98272.81;5972414;29;97433;-60
2021/08/27 09:12:17;;;;;;;;;7.25;6.75;;;;;23.88;42.33;98254.53;5992600;29;97127;-62
2021/08/27 09:15:21;;;;;;;;;7.00;6.25;;;;;23.98;42.31;98271.53;5996904;29;98633;-60
2021/08/27 09:18:26;;;;;;;;;6.75;6.75;;;;;23.95;42.84;98272.16;5994576;29;97067;-61
2021/08/27 09:21:40;;;;;;;;;9.00;8.00;;;;;24.01;42.81;98262.63;6009579;29;96786;-60
2021/08/27 09:24:43;;;;;;;;;9.25;7.25;;;;;24.01;42.96;98276.38;6005976;29;97499;-60
2021/08/27 09:28:08;;;;;;;;;7.00;7.00;;;;;23.95;42.56;98274.91;5998484;29;97463;-62
2021/08/27 09:31:11;;;;;;;;;8.60;8.00;;;;;23.84;42.31;98268.13;5997489;29;97283;-61
2021/08/27 09:34:16;;;;;;;;;10.00;9.00;;;;;23.86;43.03;98267.78;6000050;29;96473;-60
2021/08/27 09:37:20;;;;;;;;;6.60;6.00;;;;;23.86;42.85;98265.84;5999192;29;97446;-60
2021/08/27 09:40:27;;;;;;;;;9.00;9.00;;;;;23.96;43.27;98276.53;5998580;29;97269;-62
2021/08/27 09:43:42;;;;;;;;;7.00;7.00;;;;;24.02;43.20;98278.00;6006880;29;98104;-61
2021/08/27 09:46:46;;;;;;;;;7.60;7.00;;;;;24.02;43.04;98279.94;6000706;29;97025;-59
2021/08/27 09:49:51;;;;;;;;;15.00;14.00;;;;;23.93;43.01;98282.72;5985227;29;97529;-59
2021/08/27 09:53:00;;;;;;;;;11.00;10.00;;;;;23.88;43.23;98282.06;5975449;29;97532;-59
2021/08/27 09:56:05;;;;;;;;;11.00;9.33;;;;;23.76;43.74;98282.69;5993430;29;97699;-60
2021/08/27 09:59:09;;;;;;;;;11.80;10.80;;;;;23.63;43.81;98287.22;5999461;29;96425;-59
2021/08/27 10:02:14;;;;;;;;;9.60;9.00;;;;;23.47;44.00;98279.72;5997693;29;96670;-62
2021/08/27 10:05:19;;;;;;;;;6.40;6.00;;;;;23.43;43.50;98286.97;6003941;28;97506;-61
2021/08/27 10:08:25;;;;;;;;;7.80;7.00;;;;;23.38;43.17;98295.38;5998554;29;97106;-60
2021/08/27 10:11:29;;;;;;;;;6.00;6.00;;;;;23.33;43.55;98283.38;5997945;29;96458;-60
2021/08/27 10:14:32;;;;;;;;;8.20;7.20;;;;;23.27;42.58;98284.66;5998314;29;96708;-60
2021/08/27 10:17:38;;;;;;;;;6.00;5.67;;;;;23.21;42.98;98279.63;5999070;29;97316;-59
2021/08/27 10:20:45;;;;;;;;;5.00;4.00;;;;;23.36;42.17;98281.13;5998301;29;96772;-61
2021/08/27 10:23:49;;;;;;;;;6.00;4.20;;;;;23.44;41.01;98280.34;5998753;29;97010;-59
2021/08/27 10:26:52;;;;;;;;;4.00;4.00;;;;;23.45;40.89;98277.31;5999037;29;97383;-60
2021/08/27 10:29:57;;;;;;;;;5.00;5.00;;;;;23.43;40.79;98287.78;5998599;29;97492;-61
2021/08/27 10:33:00;;;;;;;;;4.33;4.00;;;;;23.36;40.79;98281.13;5996660;29;97118;-60
2021/08/27 10:36:06;;;;;;;;;3.00;3.00;;;;;23.21;40.73;98274.13;5997047;29;97137;-60
2021/08/27 10:39:09;;;;;;;;;4.00;4.00;;;;;23.33;40.72;98288.88;5991933;29;96766;-60
2021/08/27 10:42:50;;;;;;;;;4.00;4.00;;;;;23.41;41.32;98284.53;5993141;29;97480;-61
2021/08/27 10:45:55;;;;;;;;;4.40;4.40;;;;;23.51;41.85;98283.44;5997817;29;96916;-60
2021/08/27 10:48:58;;;;;;;;;5.00;4.00;;;;;23.42;42.00;98277.09;5996675;29;97232;-61
2021/08/27 10:52:23;;;;;;;;;5.40;5.00;;;;;23.57;41.97;98287.66;5994912;29;97461;-61
2021/08/27 10:55:38;;;;;;;;;5.00;4.00;;;;;23.83;42.37;98280.28;6018015;29;98927;-62
2021/08/27 10:58:46;;;;;;;;;3.00;3.00;;;;;24.07;41.45;98294.38;6018403;29;97454;-60
2021/08/27 11:02:04;;;;;;;;;3.75;3.00;;;;;24.34;39.60;98292.41;6020080;28;97535;-60
2021/08/27 11:05:08;;;;;;;;;5.60;4.60;;;;;24.56;39.86;98284.78;6019006;29;96805;-61
2021/08/27 11:08:16;;;;;;;;;4.00;4.00;;;;;24.68;39.80;98284.09;6019802;29;97229;-60
2021/08/27 11:11:23;;;;;;;;;5.00;4.00;;;;;24.71;39.12;98288.97;6027383;28;97456;-60
2021/08/27 11:14:26;;;;;;;;;6.00;5.00;;;;;24.68;39.27;98280.56;6018824;28;97480;-60
2021/08/27 11:17:30;;;;;;;;;4.00;4.00;;;;;24.62;39.04;98285.44;6019291;28;96773;-61
2021/08/27 11:20:34;;;;;;;;;5.00;4.00;;;;;24.49;38.49;98289.16;6018809;28;97681;-59
2021/08/27 11:27:06;;;;;;;;;8.00;6.00;;;;;24.52;40.32;98275.56;6267981;27;96989;-61
2021/08/27 11:30:40;;;;;;;;;8.00;7.60;;;;;24.51;41.16;98278.63;6253262;27;96684;-63
2021/08/27 11:34:04;;;;;;;;;8.00;8.00;;;;;24.41;41.78;98284.50;6227755;28;97688;-61
2021/08/27 11:37:07;;;;;;;;;7.75;7.00;;;;;24.08;42.03;98278.66;6227119;28;96710;-63
2021/08/27 11:40:12;;;;;;;;;8.75;7.75;;;;;23.91;42.17;98273.94;6225893;28;97400;-63
2021/08/27 11:43:33;;;;;;;;;9.60;9.00;;;;;23.72;43.20;98284.47;6199092;28;96806;-62
2021/08/27 11:46:38;;;;;;;;;7.00;7.00;;;;;23.56;42.76;98281.34;6227677;28;97737;-62
2021/08/27 11:49:47;;;;;;;;;8.00;7.80;;;;;23.49;42.64;98292.03;6228103;28;97504;-61
2021/08/27 11:52:51;;;;;;;;;9.00;8.00;;;;;23.38;43.02;98292.63;6207375;28;98814;-61
2021/08/27 11:55:54;;;;;;;;;9.00;9.00;;;;;23.31;43.97;98288.38;6194525;28;97416;-60
2021/08/27 11:58:59;;;;;;;;;9.00;9.00;;;;;23.28;43.81;98285.47;6182429;28;97094;-61
2021/08/27 12:02:16;;;;;;;;;11.00;9.00;;;;;23.18;44.13;98288.50;6182597;28;97571;-60
2021/08/27 12:05:22;;;;;;;;;9.00;8.00;;;;;23.12;44.20;98290.59;6182389;28;97537;-62
2021/08/27 12:08:28;;;;;;;;;10.40;10.00;;;;;23.01;44.24;98283.78;6211824;27;96639;-63
2021/08/27 12:11:32;;;;;;;;;10.60;9.00;;;;;22.96;44.50;98291.34;6252004;27;96838;-62
2021/08/27 12:14:53;;;;;;;;;7.00;7.00;;;;;22.87;44.50;98291.31;6239170;27;97627;-62
2021/08/27 12:17:59;;;;;;;;;9.00;9.00;;;;;22.81;44.73;98289.81;6234192;27;97568;-62
2021/08/27 12:21:02;;;;;;;;;10.40;10.00;;;;;22.79;45.00;98295.63;6230730;27;96695;-60
2021/08/27 12:24:09;;;;;;;;;8.40;8.00;;;;;22.52;44.99;98293.03;6230651;28;97319;-60
2021/08/27 12:27:13;;;;;;;;;10.00;9.00;;;;;22.40;45.79;98299.06;6237928;27;97669;-62
2021/08/27 12:30:18;;;;;;;;;8.40;8.40;;;;;22.38;46.96;98295.81;6238147;27;96716;-63
2021/08/27 12:33:22;;;;;;;;;10.00;9.00;;;;;22.34;46.79;98299.50;6231441;27;97561;-60
2021/08/27 12:36:26;;;;;;;;;10.00;9.00;;;;;22.32;47.15;98305.31;6218706;27;96602;-63
2021/08/27 12:39:29;;;;;;;;;9.60;9.00;;;;;22.21;48.47;98301.19;6212566;28;97098;-60
2021/08/27 12:42:32;;;;;;;;;10.60;10.60;;;;;22.09;48.69;98300.16;6205659;28;97042;-61
2021/08/27 12:45:45;;;;;;;;;12.00;10.75;;;;;21.97;49.27;98306.97;6215885;28;96667;-61
2021/08/27 12:48:49;;;;;;;;;9.20;9.20;;;;;21.86;50.44;98305.56;6212736;27;97493;-62
2021/08/27 12:51:57;;;;;;;;;10.00;9.00;;;;;21.73;50.18;98298.19;6207907;28;97412;-61
2021/08/27 12:55:01;;;;;;;;;9.00;8.40;;;;;21.68;50.81;98308.44;6221656;28;97544;-61
2021/08/27 12:58:05;;;;;;;;;8.60;8.00;;;;;21.61;50.98;98312.41;6213883;28;98046;-61
2021/08/27 13:01:17;;;;;;;;;10.00;10.00;;;;;21.36;51.58;98271.00;6213447;28;97544;-62
2021/08/27 13:04:22;;;;;;;;;12.00;11.00;;;;;21.55;52.47;98310.09;6219889;28;96651;-63
2021/08/27 13:07:29;;;;;;;;;13.50;12.00;;;;;21.59;52.61;98311.13;6208215;28;97472;-59
2021/08/27 13:10:33;;;;;;;;;14.50;13.00;;;;;21.71;52.72;98313.31;6213864;28;97524;-62
2021/08/27 13:13:39;;;;;;;;;12.00;10.40;;;;;21.80;52.37;98315.00;6213399;28;97994;-63
2021/08/27 13:16:52;;;;;;;;;12.50;11.00;;;;;21.87;52.27;98312.66;6213666;28;97514;-61
2021/08/27 13:19:58;;;;;;;;;13.25;11.50;;;;;21.74;52.39;98302.56;6208019;28;96560;-62
2021/08/27 13:23:19;;;;;;;;;13.00;12.00;;;;;21.92;52.35;98314.50;6205961;28;96571;-62
2021/08/27 13:26:24;;;;;;;;;13.00;12.60;;;;;22.00;52.88;98309.09;6208675;28;97375;-61
2021/08/27 13:29:27;;;;;;;;;13.00;11.50;;;;;22.02;52.26;98312.34;6218373;28;98686;-60
2021/08/27 13:32:41;;;;;;;;;12.40;12.40;;;;;21.88;52.00;98316.22;6229777;27;97059;-59
2021/08/27 13:35:44;;;;;;;;;12.20;11.20;;;;;21.85;52.05;98311.34;6213952;28;99089;-61
2021/08/27 13:38:48;;;;;;;;;15.60;13.00;;;;;21.69;52.21;98305.41;6213021;28;96710;-62
2021/08/27 13:41:51;;;;;;;;;14.00;13.00;;;;;21.73;52.87;98313.81;6205108;28;97464;-61
2021/08/27 13:44:55;;;;;;;;;13.00;12.00;;;;;21.74;52.59;98312.72;6193601;28;97520;-63
2021/08/27 13:48:00;;;;;;;;;15.00;12.80;;;;;21.81;52.81;98315.81;6208782;28;97477;-61
2021/08/27 13:51:03;;;;;;;;;15.80;13.80;;;;;21.80;53.29;98311.47;6211400;28;96520;-61
2021/08/27 13:54:07;;;;;;;;;13.60;12.60;;;;;21.78;53.12;98322.75;6208439;28;96834;-60
2021/08/27 13:57:11;;;;;;;;;13.00;11.33;;;;;21.71;52.69;98313.31;6220030;28;97299;-62
2021/08/27 14:00:16;;;;;;;;;11.75;11.75;;;;;21.72;52.58;98326.72;6189576;28;96977;-63
2021/08/27 14:03:21;;;;;;;;;11.60;10.60;;;;;21.65;51.88;98328.28;6208552;28;98477;-60
2021/08/27 14:06:26;;;;;;;;;12.00;11.00;;;;;21.67;51.57;98329.59;6249953;27;96709;-62
2021/08/27 14:09:29;;;;;;;;;11.00;10.75;;;;;21.58;51.31;98325.94;6220246;28;96663;-62
2021/08/27 14:12:32;;;;;;;;;11.00;10.00;;;;;21.48;51.03;98320.66;6205047;28;96494;-61
2021/08/27 14:15:36;;;;;;;;;11.50;10.00;;;;;21.43;51.00;98334.47;6209850;28;96927;-62
2021/08/27 14:18:41;;;;;;;;;10.00;9.25;;;;;21.35;51.06;98349.72;6190285;28;97587;-62
2021/08/27 14:21:44;;;;;;;;;11.00;10.00;;;;;21.38;51.19;98338.16;6192802;28;97562;-62
2021/08/27 14:24:47;;;;;;;;;13.20;10.00;;;;;21.37;51.43;98331.03;6186292;28;96562;-63
2021/08/27 14:27:51;;;;;;;;;8.75;7.75;;;;;21.38;51.58;98338.16;6186374;28;97422;-62